This is the latest recevied weather packets stored in our database for station/object N0EDB-13. If no packets are shown the sender has not sent any weather packets the latest 10 day(s).
| Time | Temp. | Humidity | Pressure | Rain* | Wind** | Luminosity | Snow |
|---|---|---|---|---|---|---|---|
| 1777512890 | 11.11° C | 51% | 1504.1 hPa | 0 mm | - | 12 W/m² | - |
| 1777512590 | 11.11° C | 53% | 1504 hPa | 0 mm | - | 14 W/m² | - |
| 1777512290 | 11.11° C | 50% | 1504.1 hPa | 0 mm | - | 17 W/m² | - |
| 1777511989 | 11.11° C | 59% | 1504.1 hPa | 0 mm | - | 19 W/m² | - |
| 1777511689 | 11.11° C | 56% | 1504.1 hPa | 0 mm | - | 20 W/m² | - |
| 1777511388 | 11.11° C | 50% | 1503.7 hPa | 0 mm | - | 24 W/m² | - |
| 1777511088 | 11.11° C | 54% | 1503.6 hPa | 0 mm | - | 28 W/m² | - |
| 1777510788 | 11.11° C | 55% | 1503.4 hPa | 0 mm | - | 28 W/m² | - |
| 1777510487 | 11.11° C | 52% | 1503.1 hPa | 0 mm | - | 27 W/m² | - |
| 1777510187 | 11.11° C | 52% | 1503 hPa | 0 mm | - | 30 W/m² | - |
| 1777509886 | 11.11° C | 51% | 1503.3 hPa | 0 mm | - | 26 W/m² | - |
| 1777509585 | 11.11° C | 53% | 1502.4 hPa | 0 mm | - | 23 W/m² | - |
| 1777509285 | 11.67° C | 46% | 1501.7 hPa | 0 mm | - | 18 W/m² | - |
| 1777508985 | 11.67° C | 50% | 1501.3 hPa | 0 mm | - | 27 W/m² | - |
| 1777508684 | 12.22° C | 49% | 1500.6 hPa | 0 mm | - | 24 W/m² | - |
| 1777508384 | 12.22° C | 47% | 1499.1 hPa | 0 mm | - | 23 W/m² | - |
| 1777508083 | 13.33° C | 46% | 1497 hPa | 0 mm | - | 30 W/m² | - |
| 1777507782 | 13.89° C | 36% | 1494.5 hPa | 0 mm | - | 32 W/m² | - |
| 1777507482 | 13.89° C | 36% | 1493.9 hPa | 0 mm | - | 42 W/m² | - |
| 1777507180 | 13.89° C | 36% | 1493.3 hPa | 0 mm | - | 51 W/m² | - |
| 1777506880 | 14.44° C | 36% | 1492.9 hPa | 0 mm | - | 58 W/m² | - |
| 1777506580 | 14.44° C | 36% | 1492.7 hPa | 0 mm | - | 73 W/m² | - |
| 1777506279 | 14.44° C | 35% | 1492.7 hPa | 0 mm | - | 102 W/m² | - |
| 1777505979 | 14.44° C | 36% | 1492.8 hPa | 0 mm | - | 106 W/m² | - |
| 1777505678 | 13.89° C | 35% | 1493 hPa | 0 mm | - | 88 W/m² | - |
* Rain latest hour (hover to see other rain measurements)
** Current wind speed in m/s (hover to see current wind gust speed)